Tiempo atmosférico en la estación meteorológica de Barbate, Cádiz (4 m.)

Fecha
DESCASC
Temp. máxima en grados centígrados (hora)
DESCASC
Temp. mínima en grados centígrados (hora)
DESCASC
Temp. media en grados centígrados
DESCASC
Racha de viento máxima en m/sg (hora)
DESCASC
Velocidad máxima media en intervalos de 10 minutos(hora)
DESCASC
Precipitaciones diarias en mm
DESCASC
Precipitaciones de 00:00 a 06:00 en mm
DESCASC
Precipitaciones de 06:00 a 12:00 en mm
DESCASC
Precipitaciones de 12:00 a 18:00 en mm
DESCASC
Precipitaciones de 18:00 a 24:00 en mm
DESCASC
17-08-2017 35.6 (16:10) 18.3 (06:10) 26.9 10.56 (15:10) 6.94 (15:00) 0 0 0 0 0
16-08-2017 32.4 (17:40) 18.8 (07:00) 25.6 7.5 (17:10) 5.83 (17:10) 0 0 0 0 0
15-08-2017 30.2 (17:50) 23.1 (00:00) 26.7 9.72 (16:10) 7.22 (15:50) 0 0 0 0 0
14-08-2017 31.4 (14:00) 23.9 (07:40) 27.6 21.11 (02:40) 12.5 (02:40) 0 0 0 0 0
13-08-2017 30.7 (15:30) 23.2 (00:00) 27 27.22 (13:50) 11.94 (18:50) 0 0 0 0 0
12-08-2017 29.9 (15:10) 23 (00:00) 26.4 21.39 (11:00) 13.33 (10:40) 0 0 0 0 0
11-08-2017 30.7 (16:30) 23.4 (00:00) 27.1 18.33 (13:00) 12.22 (12:50) 0 0 0 0 0
10-08-2017 30.5 (16:40) 20.8 (00:00) 25.6 16.11 (18:00) 11.39 (18:00) 0 0 0 0 0
09-08-2017 25.7 (14:50) 18.9 (00:00) 22.3 12.22 (13:50) 7.78 (12:10) 0 0 0 0 0
08-08-2017 33.1 (14:20) 20.6 (00:00) 26.8 10.28 (16:10) 7.5 (16:10) 0 0 0 0 0
07-08-2017 35.4 (19:20) 23.4 (00:00) 29.4 15 (03:40) 8.06 (14:10) 0 0 0 0 0
06-08-2017 33.2 (19:40) 21.8 (00:00) 27.5 8.61 (17:50) 6.39 (16:00) 0 0 0 0 0
05-08-2017 31.6 (17:20) 20.4 (00:00) 26 8.89 (17:50) 5.83 (18:30) 0 0 0 0 0
04-08-2017 31 (17:50) 18.7 (00:00) 24.9 6.39 (19:00) 5.83 (19:00) 0 0 0 0 0
03-08-2017 34.5 (19:40) 17.7 (00:00) 26.1 7.78 (17:50) 5.28 (17:40) 0 0 0 0 0
02-08-2017 32.4 (19:00) 16.6 (00:00) 24.5 10 (16:10) 8.33 (16:10) 0 0 0 0 0
01-08-2017 26.2 (19:00) 20.7 (00:00) 23.5 9.72 (17:50) 6.67 (17:40) 0 0 0 0 0
31-07-2017 27.6 (18:50) 21.1 (00:00) 24.4 8.33 (09:50) 6.11 (04:30) 0 0 0 0 0
30-07-2017 26.7 (17:40) 21.2 (00:00) 24 8.06 (09:50) 6.11 (08:40) 0 0 0 0 0
29-07-2017 27.2 (20:10) 20.7 (00:00) 24 8.06 (17:50) 5.28 (17:40) 0 0 0 0 0
28-07-2017 29.6 (20:40) 19.3 (00:00) 24.4 7.5 (18:00) 6.11 (18:00) 0 0 0 0 0
27-07-2017 30.8 (19:00) 21.4 (00:00) 26.1 8.89 (15:20) 6.39 (15:20) 0 0 0 0 0
26-07-2017 27.8 (18:30) 20 (00:00) 23.9 8.06 (18:50) 6.67 (18:50) 0 0 0 0 0
25-07-2017 26.5 (19:00) 21.6 (00:00) 24.1 7.78 (11:40) 6.11 (11:30) 0 0 0 0 0
24-07-2017 32.4 (19:00) 17.7 (00:00) 25.1 8.06 (16:20) 6.67 (16:30) 0 0 0 0 0
23-07-2017 32.1 (19:00) 17.8 (00:00) 24.9 9.17 (16:00) 7.5 (16:30) 0 0 0 0 0
22-07-2017 29.4 (19:00) 18.3 (00:00) 23.8 9.72 (16:10) 7.78 (16:10) 0 0 0 0 0
21-07-2017 26.8 (19:00) 19.8 (00:00) 23.3 14.17 (05:50) 8.89 (11:10) 0 0 0 0 0
20-07-2017 26.2 (17:20) 21 (00:00) 23.6 10 (09:30) 8.33 (09:30) 0 0 0 0 0
19-07-2017 27 (19:00) 21 (00:00) 24 12.78 (17:50) 8.61 (16:00) 0 0 0 0 0

Gráficas

Temp. máximas Temp. mínimas Temp. medias Precipitaciones Rachas de viento máximas Velocidades máximas media en intervalos de 10 minutos

Datos horarios

Fecha y hora oficial Temperatura (ºC) Velocidad del viento (km/h) Dirección del viento Racha (km/h) Dirección de racha Precipitación (mm) Presión (hPa) Tendencia (hPa) Humedad (%)
2017-08-17 23:00:00 25.6 23 Nordeste 28 Nordeste 0 -- -- 80
2017-08-17 22:00:00 26.5 12 Nordeste 28 Nordeste 0 -- -- 75
2017-08-17 21:00:00 28.4 18 Nordeste 28 Este 0 -- -- 65
2017-08-17 20:00:00 31.6 21 Este 33 Este 0 -- -- 55
2017-08-17 19:00:00 33.8 19 Este 31 Este 0 -- -- 50
2017-08-17 18:00:00 34.8 18 Este 28 Este 0 -- -- 48
2017-08-17 17:00:00 32.9 11 Sudoeste 33 Este 0 -- -- 57
2017-08-17 16:00:00 35.5 22 Este 38 Este 0 -- -- 44
2017-08-17 15:00:00 34.4 25 Este 34 Este 0 -- -- 48
2017-08-17 14:00:00 33.2 24 Este 35 Este 0 -- -- 54
2017-08-17 13:00:00 29.9 9 Sudeste 18 Sur 0 -- -- 66
2017-08-17 12:00:00 27.8 14 Sur 18 Sur 0 -- -- 73
2017-08-17 11:00:00 26.8 10 Oeste 12 Sudoeste 0 -- -- 75
2017-08-17 10:00:00 24.9 3 Oeste 9 Norte 0 -- -- 83
2017-08-17 09:00:00 21.5 6 Norte 11 Norte 0 -- -- 91
2017-08-17 08:00:00 18.8 5 Norte 10 Norte 0 -- -- 94
2017-08-17 07:00:00 18.6 4 Nordeste 8 Nordeste 0 -- -- 92
2017-08-17 06:00:00 18.4 6 Nordeste 8 Norte 0 -- -- 92
2017-08-17 05:00:00 18.8 6 Nordeste 10 Norte 0 -- -- 89
2017-08-17 04:00:00 19.1 8 Norte 12 Nordeste 0 -- -- 89
2017-08-17 03:00:00 19.7 6 Norte 10 Norte 0 -- -- 89
2017-08-17 02:00:00 21.2 4 Sudoeste 7 Sudoeste 0 -- -- 93
2017-08-17 01:00:00 21.5 4 Sudoeste 10 Sur 0 -- -- 92
2017-08-17 00:00:00 21.8 9 Sur 13 Sudeste 0 -- -- 93
2017-08-16 23:00:00 22.5 8 Sur 14 Sudeste 0 -- -- 90
2017-08-16 22:00:00 23.2 14 Sudeste 21 Sudeste 0 -- -- 86
2017-08-16 21:00:00 25.6 17 Sudeste 20 Sudeste 0 -- -- 76
2017-08-16 20:00:00 30.9 7 Sur 14 Sur 0 -- -- 57
2017-08-16 19:00:00 31.8 12 Sudeste 14 Sudeste 0 -- -- 50
2017-08-16 18:00:00 31.8 8 Sur 27 Oeste 0 -- -- 53
2017-08-16 17:00:00 29.3 20 Oeste 26 Oeste 0 -- -- 67
2017-08-16 16:00:00 27.8 16 Sur 23 Sur 0 -- -- 76
2017-08-16 15:00:00 27.2 19 Sur 22 Sur 0 -- -- 77
2017-08-16 14:00:00 28 16 Sudoeste 22 Sudoeste 0 -- -- 74
2017-08-16 13:00:00 26.8 14 Sudoeste 16 Sudoeste 0 -- -- 76
2017-08-16 12:00:00 27 11 Sudoeste 14 Sudoeste 0 -- -- 74
2017-08-16 11:00:00 26.7 9 Sudoeste 12 Oeste 0 -- -- 75
2017-08-16 10:00:00 24.2 6 Norte 10 Nordeste 0 -- -- 81
2017-08-16 09:00:00 21.1 7 Norte 12 Norte 0 -- -- 91
2017-08-16 08:00:00 19.2 7 Nordeste 10 Nordeste 0 -- -- 93
2017-08-16 07:00:00 18.8 5 Norte 8 Nordeste 0 -- -- 91
2017-08-16 06:00:00 19.5 5 Nordeste 6 Nordeste 0 -- -- 90
2017-08-16 05:00:00 20.5 4 Norte 10 Norte 0 -- -- 92
2017-08-16 04:00:00 20.3 6 Nordeste 12 Norte 0 -- -- 86
2017-08-16 03:00:00 20.8 6 Norte 8 Norte 0 -- -- 86
2017-08-16 02:00:00 22.6 4 Norte 6 Nordeste 0 -- -- 86
2017-08-16 01:00:00 23.1 3 Este 7 Nordeste 0 -- -- 84
2017-08-16 00:00:00 23.8 4 Norte 6 Norte 0 -- -- 83
2017-08-15 23:00:00 25 0 Calma 9 Noroeste 0 -- -- 78
2017-08-15 22:00:00 25.5 8 Noroeste 17 Noroeste 0 -- -- 77
2017-08-15 21:00:00 26.5 10 Oeste 18 Oeste 0 -- -- 77
2017-08-15 20:00:00 29.3 15 Oeste 19 Oeste 0 -- -- 69
2017-08-15 19:00:00 29 16 Oeste 26 Oeste 0 -- -- 71
2017-08-15 18:00:00 30 17 Oeste 30 Sudoeste 0 -- -- 69
2017-08-15 17:00:00 29.7 16 Sudoeste 35 Sur 0 -- -- 70
2017-08-15 16:00:00 28.5 24 Sur 31 Sur 0 -- -- 75
2017-08-15 15:00:00 28.9 21 Sur 26 Sur 0 -- -- 75
2017-08-15 14:00:00 28.8 18 Sur 22 Sur 0 -- -- 74
2017-08-15 13:00:00 29.4 15 Sur 21 Sur 0 -- -- 70
2017-08-15 12:00:00 28.6 11 Oeste 16 Oeste 0 -- -- 71
2017-08-15 11:00:00 29.3 9 Sur 31 Este 0 -- -- 67
2017-08-15 10:00:00 27.3 9 Nordeste 23 Este 0 -- -- 74
2017-08-15 09:00:00 24.4 7 Norte 15 Nordeste 0 -- -- 85
2017-08-15 08:00:00 23.1 5 Norte 19 Este 0 -- -- 89
2017-08-15 07:00:00 24.1 13 Este 21 Este 0 -- -- 86
2017-08-15 06:00:00 24.2 9 Este 20 Este 0 -- -- 85
2017-08-15 05:00:00 23.8 7 Este 13 Este 0 -- -- 86
2017-08-15 04:00:00 24.6 6 Nordeste 19 Este 0 -- -- 83
2017-08-15 03:00:00 25.2 10 Este 33 Este 0 -- -- 79
2017-08-15 02:00:00 25.1 21 Nordeste 32 Este 0 -- -- 81
2017-08-15 01:00:00 25.3 20 Nordeste 29 Este 0 -- -- 80
2017-08-15 00:00:00 25.4 8 Nordeste 23 Este 0 -- -- 78
2017-08-14 23:00:00 25.8 18 Este 28 Nordeste 0 -- -- 76
2017-08-14 22:00:00 25.9 19 Este 41 Nordeste 0 -- -- 75
2017-08-14 21:00:00 27 18 Este 42 Este 0 -- -- 68
2017-08-14 20:00:00 28.7 23 Este 40 Este 0 -- -- 65
2017-08-14 19:00:00 29.8 27 Este 55 Sudeste 0 -- -- 63
2017-08-14 18:00:00 30.5 33 Este 53 Este 0 -- -- 60
2017-08-14 17:00:00 30.9 35 Este 57 Este 0 -- -- 59
2017-08-14 16:00:00 31.2 35 Este 55 Sudeste 0 -- -- 59
2017-08-14 15:00:00 30.9 32 Este 59 Este 0 -- -- 59
2017-08-14 14:00:00 31.4 33 Sudeste 57 Sudeste 0 -- -- 58
2017-08-14 13:00:00 29.8 35 Sudeste 56 Este 0 -- -- 63
2017-08-14 12:00:00 28.8 32 Este 55 Este 0 -- -- 66
2017-08-14 11:00:00 27.8 29 Sudeste 53 Sudeste 0 -- -- 68
2017-08-14 10:00:00 26.7 19 Sudeste 39 Sudeste 0 -- -- 71
2017-08-14 09:00:00 25 18 Sudeste 35 Sudeste 0 -- -- 77
2017-08-14 08:00:00 23.9 20 Sudeste 44 Este 0 -- -- 79
2017-08-14 07:00:00 24.1 12 Sudeste 55 Sudeste 0 -- -- 73
2017-08-14 06:00:00 24.4 31 Sudeste 75 Este 0 -- -- 70
2017-08-14 05:00:00 24.5 39 Sudeste 71 Sudeste 0 -- -- 68
2017-08-14 04:00:00 24.3 40 Sudeste 66 Sudeste 0 -- -- 74
2017-08-14 03:00:00 24.3 43 Sudeste 76 Sudeste 0 -- -- 75
2017-08-14 02:00:00 24.3 37 Sudeste 72 Sudeste 0 -- -- 75
2017-08-14 01:00:00 24.4 11 Sudeste 45 Este 0 -- -- 75
2017-08-14 00:00:00 24.3 8 Nordeste 33 Este 0 -- -- 75
2017-08-13 23:00:00 24.4 13 Nordeste 37 Este 0 -- -- 78
2017-08-13 22:00:00 24.6 13 Nordeste 37 Este 0 -- -- 77
2017-08-13 21:00:00 25.6 23 Este 60 Este 0 -- -- 72
2017-08-13 20:00:00 27.5 38 Este 78 Este 0 -- -- 65
2017-08-13 19:00:00 28.5 39 Este 67 Sudeste 0 -- -- 62
2017-08-13 18:00:00 29.8 36 Sudeste 71 Sudeste 0 -- -- 58
2017-08-13 17:00:00 30.4 35 Este 54 Este 0 -- -- 57
2017-08-13 16:00:00 30.3 33 Sudeste 56 Este 0 -- -- 58
2017-08-13 15:00:00 30.1 33 Sudeste 68 Este 0 -- -- 57
2017-08-13 14:00:00 29.6 39 Este 98 Este 0 -- -- 58
2017-08-13 13:00:00 28.9 36 Este 68 Sudeste 0 -- -- 61
2017-08-13 12:00:00 28.2 38 Este 60 Sudeste 0 -- -- 63
2017-08-13 11:00:00 27.7 21 Sudeste 46 Sudeste 0 -- -- 66
2017-08-13 10:00:00 26.3 9 Este 34 Este 0 -- -- 71
2017-08-13 09:00:00 24.8 7 Norte 33 Norte 0 -- -- 75
2017-08-13 08:00:00 23.7 12 Norte 25 Nordeste 0 -- -- 79
2017-08-13 07:00:00 23.6 10 Norte 54 Sudeste 0 -- -- 80
2017-08-13 06:00:00 23.7 25 Este 66 Sudeste 0 -- -- 79
2017-08-13 05:00:00 23.7 35 Este 72 Este 0 -- -- 80
2017-08-13 04:00:00 23.6 36 Este 64 Este 0 -- -- 80
2017-08-13 03:00:00 23.4 13 Nordeste 32 Este 0 -- -- 79
2017-08-13 02:00:00 23.2 7 Noroeste 30 Este 0 -- -- 79
2017-08-13 01:00:00 23.4 8 Norte 27 Nordeste 0 -- -- 77
2017-08-13 00:00:00 23.5 14 Nordeste 27 Este 0 -- -- 78
2017-08-12 23:00:00 23.8 9 Nordeste 24 Nordeste 0 -- -- 75
2017-08-12 22:00:00 24.1 10 Nordeste 27 Este 0 -- -- 74
2017-08-12 21:00:00 25.6 15 Nordeste 37 Este 0 -- -- 68
2017-08-12 20:00:00 27.9 23 Este 56 Este 0 -- -- 62
2017-08-12 19:00:00 28.3 36 Este 69 Este 0 -- -- 59
2017-08-12 18:00:00 29.1 39 Este 66 Este 0 -- -- 58
2017-08-12 17:00:00 29.2 45 Este 73 Este 0 -- -- 57
2017-08-12 16:00:00 29.9 39 Este 71 Este 0 -- -- 56
2017-08-12 15:00:00 29.7 41 Este 70 Este 0 -- -- 57
2017-08-12 14:00:00 29.4 40 Este 74 Este 0 -- -- 58
2017-08-12 13:00:00 28.4 39 Este 69 Este 0 -- -- 62
2017-08-12 12:00:00 27.8 39 Este 69 Este 0 -- -- 64
2017-08-12 11:00:00 26.4 48 Sudeste 77 Sudeste 0 -- -- 70
2017-08-12 10:00:00 25.3 40 Sudeste 69 Este 0 -- -- 74
2017-08-12 09:00:00 24.3 38 Sudeste 67 Este 0 -- -- 78
2017-08-12 08:00:00 23.5 36 Este 75 Sudeste 0 -- -- 81
2017-08-12 07:00:00 23.4 17 Este 45 Este 0 -- -- 80
2017-08-12 06:00:00 23.4 13 Norte 27 Nordeste 0 -- -- 78
2017-08-12 05:00:00 23.5 10 Nordeste 28 Nordeste 0 -- -- 76
2017-08-12 04:00:00 23.5 8 Nordeste 27 Nordeste 0 -- -- 74
2017-08-12 03:00:00 23.3 13 Norte 29 Nordeste 0 -- -- 75
2017-08-12 02:00:00 23.1 14 Nordeste 29 Nordeste 0 -- -- 76
2017-08-12 01:00:00 23.3 19 Nordeste 28 Nordeste 0 -- -- 75
2017-08-12 00:00:00 23.4 15 Nordeste 35 Nordeste 0 -- -- 79
2017-08-11 23:00:00 24.1 23 Este 52 Este 0 -- -- 78
2017-08-11 22:00:00 24.8 27 Este 55 Este 0 -- -- 74
2017-08-11 21:00:00 26.1 38 Este 58 Este 0 -- -- 68
2017-08-11 20:00:00 28 33 Este 50 Este 0 -- -- 60
2017-08-11 19:00:00 29.2 33 Este 54 Este 0 -- -- 59
2017-08-11 18:00:00 29.8 33 Este 54 Sudeste 0 -- -- 57
2017-08-11 17:00:00 30.7 35 Sudeste 59 Este 0 -- -- 55
2017-08-11 16:00:00 30.6 30 Este 55 Sudeste 0 -- -- 57
2017-08-11 15:00:00 29.3 39 Este 62 Este 0 -- -- 61
2017-08-11 14:00:00 29.5 35 Este 64 Este 0 -- -- 62
2017-08-11 13:00:00 28.6 43 Este 66 Este 0 -- -- 66
2017-08-11 12:00:00 28.2 38 Este 57 Este 0 -- -- 68
2017-08-11 11:00:00 27.6 27 Este 44 Sudeste 0 -- -- 70
2017-08-11 10:00:00 26.5 23 Este 44 Este 0 -- -- 73
2017-08-11 09:00:00 25 9 Este 43 Este 0 -- -- 78
2017-08-11 08:00:00 23.7 21 Este 45 Este 0 -- -- 80
2017-08-11 07:00:00 23.7 18 Este 34 Este 0 -- -- 84
2017-08-11 06:00:00 24 9 Nordeste 33 Nordeste 0 -- -- 84
2017-08-11 05:00:00 23.9 11 Norte 25 Nordeste 0 -- -- 84
2017-08-11 04:00:00 23.6 14 Nordeste 33 Nordeste 0 -- -- 85
2017-08-11 03:00:00 23.7 15 Nordeste 27 Este 0 -- -- 84
2017-08-11 02:00:00 23.9 13 Nordeste 35 Nordeste 0 -- -- 84
2017-08-11 01:00:00 23.9 15 Nordeste 27 Nordeste 0 -- -- 84
2017-08-11 00:00:00 24 9 Noroeste 27 Norte 0 -- -- 83
2017-08-10 23:00:00 24.1 9 Nordeste 36 Este 0 -- -- 83
2017-08-10 22:00:00 24.3 15 Este 40 Nordeste 0 -- -- 81
2017-08-10 21:00:00 25 22 Nordeste 40 Este 0 -- -- 77
2017-08-10 20:00:00 27.2 22 Este 51 Este 0 -- -- 69
2017-08-10 19:00:00 28.4 34 Este 57 Este 0 -- -- 65
2017-08-10 18:00:00 29.1 41 Este 58 Este 0 -- -- 63
2017-08-10 17:00:00 29.9 40 Este 54 Este 0 -- -- 60
2017-08-10 16:00:00 27.3 14 Sudoeste 27 Sur 0 -- -- 70
2017-08-10 15:00:00 26.1 17 Oeste 22 Sudoeste 0 -- -- 75
2017-08-10 14:00:00 25.9 17 Oeste 22 Oeste 0 -- -- 76
2017-08-10 13:00:00 25 14 Sudoeste 18 Sudoeste 0 -- -- 80
2017-08-10 12:00:00 23.8 15 Sur 19 Sur 0 -- -- 84
2017-08-10 11:00:00 23 16 Sur 20 Sur 0 -- -- 87
2017-08-10 10:00:00 21.8 14 Sur 23 Sudoeste 0 -- -- 91
2017-08-10 09:00:00 21.2 21 Sudoeste 28 Sudoeste 0 -- -- 94
2017-08-10 08:00:00 20.8 26 Sudoeste 33 Sur 0 -- -- 94
2017-08-10 07:00:00 21.2 24 Sudoeste 33 Sudoeste 0 -- -- 92
2017-08-10 06:00:00 21.5 25 Sudoeste 37 Sudoeste 0 -- -- 92
2017-08-10 05:00:00 21.4 24 Sudoeste 30 Sudoeste 0 -- -- 91
2017-08-10 04:00:00 21.5 22 Sudoeste 27 Sudoeste 0 -- -- 91
2017-08-10 03:00:00 21.5 21 Sudoeste 25 Sudoeste 0 -- -- 90
2017-08-10 02:00:00 21.5 16 Sudoeste 22 Sudoeste 0 -- -- 88
2017-08-10 01:00:00 21.6 14 Sudoeste 16 Sudoeste 0 -- -- 87
2017-08-10 00:00:00 21.5 12 Sudoeste 15 Sudoeste 0 -- -- 86
2017-08-09 23:00:00 21.5 5 Sudoeste 13 Oeste 0 -- -- 81
2017-08-09 22:00:00 21.6 9 Oeste 19 Oeste 0 -- -- 77
2017-08-09 21:00:00 23.1 16 Oeste 24 Oeste 0 -- -- 71
2017-08-09 20:00:00 24.7 19 Oeste 26 Sudoeste 0 -- -- 67
2017-08-09 19:00:00 25 22 Oeste 31 Sudoeste 0 -- -- 64
2017-08-09 18:00:00 24.9 26 Oeste 31 Oeste 0 -- -- 64
2017-08-09 17:00:00 25.1 25 Oeste 33 Oeste 0 -- -- 65
2017-08-09 16:00:00 24.9 28 Oeste 33 Oeste 0 -- -- 66
2017-08-09 15:00:00 25.5 21 Oeste 32 Oeste 0 -- -- 57
2017-08-09 14:00:00 24.1 26 Oeste 44 Sudoeste 0 -- -- 70
2017-08-09 13:00:00 24 26 Oeste 33 Oeste 0 -- -- 71
2017-08-09 12:00:00 23.2 28 Oeste 33 Oeste 0 -- -- 73
2017-08-09 11:00:00 24.1 16 Oeste 23 Oeste 0 -- -- 73
2017-08-09 10:00:00 23.1 5 Sudoeste 9 Oeste 0 -- -- 75
2017-08-09 09:00:00 20.8 2 Sudoeste 5 Este 0 -- -- 82
2017-08-09 08:00:00 19 4 Este 6 Nordeste 0 -- -- 87
2017-08-09 07:00:00 19.1 2 Nordeste 11 Oeste 0 -- -- 85
2017-08-09 06:00:00 20.8 11 Oeste 16 Oeste 0 -- -- 75
2017-08-09 05:00:00 21.3 8 Oeste 12 Oeste 0 -- -- 84
2017-08-09 04:00:00 22.1 8 Oeste 15 Oeste 0 -- -- 87
2017-08-09 03:00:00 22.6 13 Sudoeste 21 Sur 0 -- -- 89
2017-08-09 02:00:00 22.8 18 Sur 26 Sur 0 -- -- 87
2017-08-09 01:00:00 23.1 17 Sur 19 Sur 0 -- -- 86
2017-08-09 00:00:00 23.2 11 Sudoeste 24 Sudoeste 0 -- -- 81
2017-08-08 23:00:00 23.8 13 Sur 26 Sur 0 -- -- 70
2017-08-08 22:00:00 24 7 Noroeste 37 Noroeste 0 -- -- 65
2017-08-08 21:00:00 25.9 18 Noroeste 37 Oeste 0 -- -- 55
2017-08-08 20:00:00 29 22 Noroeste 35 Noroeste 0 -- -- 48
2017-08-08 19:00:00 31.9 19 Noroeste 34 Noroeste 0 -- -- 37
2017-08-08 18:00:00 32.4 22 Noroeste 33 Oeste 0 -- -- 35
2017-08-08 17:00:00 31.6 24 Noroeste 37 Oeste 0 -- -- 40
2017-08-08 16:00:00 31.7 26 Noroeste 36 Oeste 0 -- -- 39
2017-08-08 15:00:00 32.1 23 Noroeste 31 Oeste 0 -- -- 41
2017-08-08 14:00:00 33 12 Noroeste 23 Noroeste 0 -- -- 36
2017-08-08 13:00:00 29.9 10 Sudoeste 17 Sudoeste 0 -- -- 56
2017-08-08 12:00:00 28.7 11 Sudoeste 17 Sudoeste 0 -- -- 57
2017-08-08 11:00:00 27.2 9 Norte 19 Norte 0 -- -- 43
2017-08-08 10:00:00 24.7 8 Norte 17 Nordeste 0 -- -- 54
2017-08-08 09:00:00 21.7 5 Norte 11 Norte 0 -- -- 80
2017-08-08 08:00:00 20.8 5 Norte 9 Norte 0 -- -- 78
2017-08-08 07:00:00 23 5 Sudoeste 15 Sur 0 -- -- 89
2017-08-08 06:00:00 22.5 0 Calma 10 Sudeste 0 -- -- 84
2017-08-08 05:00:00 22.9 5 Sur 8 Sur 0 -- -- 81
2017-08-08 04:00:00 21.9 0 Calma 7 Noroeste 0 -- -- 61
2017-08-08 03:00:00 23.1 5 Norte 8 Nordeste 0 -- -- 64
2017-08-08 02:00:00 23.2 8 Nordeste 10 Nordeste 0 -- -- 77
2017-08-08 01:00:00 23.6 7 Norte 8 Norte 0 -- -- 73
2017-08-08 00:00:00 24.6 5 Sudoeste 9 Sudeste 0 -- -- 82
2017-08-07 23:00:00 25.5 9 Sudeste 14 Sudeste 0 -- -- 80
2017-08-07 22:00:00 25.8 11 Sur 19 Sudeste 0 -- -- 81
2017-08-07 21:00:00 26.4 15 Sur 21 Sudeste 0 -- -- 74
2017-08-07 20:00:00 30.8 14 Sudeste 18 Sudeste 0 -- -- 56
2017-08-07 19:00:00 35 7 Norte 24 Sudoeste 0 -- -- 38
2017-08-07 18:00:00 30.2 21 Oeste 30 Oeste 0 -- -- 65
2017-08-07 17:00:00 29.7 24 Sudoeste 31 Oeste 0 -- -- 72
2017-08-07 16:00:00 31 13 Sudoeste 25 Oeste 0 -- -- 68
2017-08-07 15:00:00 29.6 22 Sur 35 Sur 0 -- -- 74
2017-08-07 14:00:00 29.2 25 Sur 31 Sur 0 -- -- 73
2017-08-07 13:00:00 28.9 17 Sur 24 Sur 0 -- -- 73
2017-08-07 12:00:00 30.4 12 Sudoeste 19 Nordeste 0 -- -- 69
2017-08-07 11:00:00 27.5 10 Oeste 15 Sudoeste 0 -- -- 75
2017-08-07 10:00:00 27.7 13 Sudoeste 17 Sudoeste 0 -- -- 74
2017-08-07 09:00:00 25.9 5 Oeste 14 Norte 0 -- -- 77
2017-08-07 08:00:00 24 9 Norte 19 Norte 0 -- -- 75
2017-08-07 07:00:00 23.4 9 Norte 19 Norte 0 -- -- 70
2017-08-07 06:00:00 24.1 9 Norte 22 Nordeste 0 -- -- 67
2017-08-07 05:00:00 25.7 5 Noroeste 24 Noroeste 0 -- -- 66
2017-08-07 04:00:00 27.6 15 Noroeste 54 Oeste 0 -- -- 53
2017-08-07 03:00:00 24.9 11 Nordeste 21 Nordeste 0 -- -- 69
2017-08-07 02:00:00 24.8 5 Sudeste 10 Sudeste 0 -- -- 74
2017-08-07 01:00:00 25.1 5 Norte 10 Oeste 0 -- -- 70
2017-08-07 00:00:00 25.4 5 Oeste 14 Sudoeste 0 -- -- 81
2017-08-06 23:00:00 25.8 14 Sudoeste 26 Sudoeste 0 -- -- 82
2017-08-06 22:00:00 29.2 6 Nordeste 12 Nordeste 0 -- -- 52
2017-08-06 21:00:00 31.2 5 Norte 13 Norte 0 -- -- 36
2017-08-06 20:00:00 31 4 Sur 20 Oeste 0 -- -- 62
2017-08-06 19:00:00 30.8 19 Oeste 24 Oeste 0 -- -- 53
2017-08-06 18:00:00 30.6 20 Oeste 31 Sudoeste 0 -- -- 64
2017-08-06 17:00:00 30.9 17 Oeste 25 Oeste 0 -- -- 64
2017-08-06 16:00:00 29.6 23 Oeste 27 Oeste 0 -- -- 66
2017-08-06 15:00:00 29.3 19 Oeste 23 Oeste 0 -- -- 74
2017-08-06 14:00:00 29.3 12 Sudoeste 15 Sudoeste 0 -- -- 77
2017-08-06 13:00:00 28.3 10 Sudoeste 13 Sudoeste 0 -- -- 79
2017-08-06 12:00:00 28.4 8 Sudoeste 10 Sudoeste 0 -- -- 78
2017-08-06 11:00:00 27.9 4 Sudoeste 8 Sudoeste 0 -- -- 77
2017-08-06 10:00:00 25.8 3 Nordeste 8 Nordeste 0 -- -- 79
2017-08-06 09:00:00 23 3 Nordeste 12 Sudeste 0 -- -- 89
2017-08-06 08:00:00 22.3 6 Norte 10 Norte 0 -- -- 92
2017-08-06 07:00:00 21.9 5 Norte 17 Nordeste 0 -- -- 88
2017-08-06 06:00:00 22.3 5 Oeste 17 Norte 0 -- -- 88
2017-08-06 05:00:00 23.8 12 Sur 17 Sudeste 0 -- -- 93
2017-08-06 04:00:00 23.7 8 Sudoeste 14 Sudoeste 0 -- -- 89
2017-08-06 03:00:00 24.3 9 Sudoeste 13 Sur 0 -- -- 87
2017-08-06 02:00:00 23.4 4 Nordeste 10 Norte 0 -- -- 66
2017-08-06 01:00:00 24.8 8 Norte 10 Norte 0 -- -- 64
2017-08-06 00:00:00 24.9 4 Norte 13 Oeste 0 -- -- 74
2017-08-05 23:00:00 26.6 4 Sudoeste 8 Sudoeste 0 -- -- 72
2017-08-05 22:00:00 27.2 3 Sudeste 6 Sudeste 0 -- -- 67
2017-08-05 21:00:00 29.4 4 Sudoeste 12 Oeste 0 -- -- 63
2017-08-05 20:00:00 31.5 8 Oeste 24 Oeste 0 -- -- 58
2017-08-05 19:00:00 31.2 19 Oeste 24 Oeste 0 -- -- 51
2017-08-05 18:00:00 31.2 21 Oeste 32 Oeste 0 -- -- 54
2017-08-05 17:00:00 31.3 17 Oeste 22 Oeste 0 -- -- 55
2017-08-05 16:00:00 30.5 18 Oeste 23 Oeste 0 -- -- 58
2017-08-05 15:00:00 29.7 21 Oeste 23 Oeste 0 -- -- 61
2017-08-05 14:00:00 29.1 18 Oeste 23 Oeste 0 -- -- 67
2017-08-05 13:00:00 28.2 17 Oeste 21 Sudoeste 0 -- -- 66
2017-08-05 12:00:00 27.6 14 Oeste 18 Oeste 0 -- -- 70
2017-08-05 11:00:00 26.5 11 Oeste 17 Oeste 0 -- -- 70
2017-08-05 10:00:00 25.4 3 Sur 8 Sur 0 -- -- 75
2017-08-05 09:00:00 22.5 2 Nordeste 8 Nordeste 0 -- -- 80
2017-08-05 08:00:00 21 3 Noroeste 11 Nordeste 0 -- -- 80
2017-08-05 07:00:00 20.4 8 Nordeste 12 Norte 0 -- -- 87
2017-08-05 06:00:00 20.9 7 Norte 12 Nordeste 0 -- -- 89
2017-08-05 05:00:00 21.2 8 Norte 12 Nordeste 0 -- -- 89
2017-08-05 04:00:00 21.6 7 Nordeste 9 Nordeste 0 -- -- 87
2017-08-05 03:00:00 22.1 5 Nordeste 9 Nordeste 0 -- -- 86
2017-08-05 02:00:00 23.3 2 Norte 9 Norte 0 -- -- 82
2017-08-05 01:00:00 23.8 4 Nordeste 6 Nordeste 0 -- -- 87
2017-08-05 00:00:00 24.1 0 Calma 8 Oeste 0 -- -- 84
2017-08-04 23:00:00 24.2 5 Sur 7 Oeste 0 -- -- 85
2017-08-04 22:00:00 24.8 5 Sudoeste 14 Sur 0 -- -- 83
2017-08-04 21:00:00 26.4 11 Sur 20 Sur 0 -- -- 81
2017-08-04 20:00:00 27.4 16 Sur 23 Sur 0 -- -- 80
2017-08-04 19:00:00 29 21 Sur 23 Sur 0 -- -- 75
2017-08-04 18:00:00 31 13 Oeste 18 Oeste 0 -- -- 64
2017-08-04 17:00:00 29.4 17 Oeste 21 Oeste 0 -- -- 70
2017-08-04 16:00:00 28 18 Oeste 22 Sudoeste 0 -- -- 75
2017-08-04 15:00:00 27.6 15 Sudoeste 19 Sudoeste 0 -- -- 79
2017-08-04 14:00:00 27.6 15 Sudoeste 21 Sudoeste 0 -- -- 77
2017-08-04 13:00:00 27.5 14 Sudoeste 15 Sudoeste 0 -- -- 76
2017-08-04 12:00:00 26.9 10 Sudoeste 12 Oeste 0 -- -- 78
2017-08-04 11:00:00 25.8 6 Sudoeste 8 Sudoeste 0 -- -- 85
2017-08-04 10:00:00 24.5 6 Sur 10 Sur 0 -- -- 90
2017-08-04 09:00:00 22.9 9 Sur 11 Sudeste 0 -- -- 93
2017-08-04 08:00:00 19 3 Nordeste 7 Norte 0 -- -- 83
2017-08-04 07:00:00 20.3 0 Calma 5 Nordeste 0 -- -- 80
2017-08-04 06:00:00 20.3 4 Nordeste 6 Norte 0 -- -- 80
2017-08-04 05:00:00 20.1 5 Nordeste 12 Norte 0 -- -- 79
2017-08-04 04:00:00 21.9 7 Norte 10 Norte 0 -- -- 73
2017-08-04 03:00:00 21 7 Norte 9 Nordeste 0 -- -- 78
2017-08-04 02:00:00 23.4 3 Noroeste 6 Oeste 0 -- -- 89
2017-08-04 01:00:00 23.8 4 Sur 6 Sur 0 -- -- 89
2017-08-04 00:00:00 24.2 3 Sur 9 Sudeste 0 -- -- 86
2017-08-03 23:00:00 24.8 5 Sudeste 14 Sudeste 0 -- -- 79
2017-08-03 22:00:00 27 9 Sudeste 10 Sudeste 0 -- -- 73
2017-08-03 21:00:00 33.1 3 Norte 10 Noroeste 0 -- -- 45
2017-08-03 20:00:00 34.1 5 Oeste 15 Noroeste 0 -- -- 52
2017-08-03 19:00:00 33.7 6 Oeste 18 Oeste 0 -- -- 51
2017-08-03 18:00:00 29.7 15 Oeste 28 Oeste 0 -- -- 66
2017-08-03 17:00:00 27.2 16 Sudoeste 19 Sudoeste 0 -- -- 79
2017-08-03 16:00:00 26.8 15 Sudoeste 20 Sudoeste 0 -- -- 78
2017-08-03 15:00:00 26.7 15 Sudoeste 18 Sudoeste 0 -- -- 80
2017-08-03 14:00:00 26.2 14 Sudoeste 21 Sudoeste 0 -- -- 81
2017-08-03 13:00:00 25.8 14 Sudoeste 16 Sudoeste 0 -- -- 83
2017-08-03 12:00:00 25.8 10 Sudoeste 12 Sur 0 -- -- 82
2017-08-03 11:00:00 25.2 5 Sur 8 Sur 0 -- -- 83
2017-08-03 10:00:00 22.8 0 Calma 7 Norte 0 -- -- 85
2017-08-03 09:00:00 19.3 4 Norte 8 Norte 0 -- -- 88
2017-08-03 08:00:00 17.7 5 Norte 9 Norte 0 -- -- 89
2017-08-03 07:00:00 18.1 7 Norte 10 Sudoeste 0 -- -- 85
2017-08-03 06:00:00 19.9 5 Sur 7 Sur 0 -- -- 89
2017-08-03 05:00:00 20.5 3 Sur 4 Sur 0 -- -- 86
2017-08-03 04:00:00 19.9 0 Calma 4 Nordeste 0 -- -- 79
2017-08-03 03:00:00 20.6 0 Calma 6 Norte 0 -- -- 78
2017-08-03 02:00:00 20.7 5 Norte 7 Nordeste 0 -- -- 76
2017-08-03 01:00:00 22.2 3 Noroeste 6 Norte 0 -- -- 68
2017-08-03 00:00:00 22.9 2 Este 8 Sudeste 0 -- -- 66
2017-08-02 23:00:00 24.2 3 Norte 21 Norte 0 -- -- 58
2017-08-02 22:00:00 25.1 10 Norte 28 Noroeste 0 -- -- 54
2017-08-02 21:00:00 28.4 6 Norte 21 Noroeste 0 -- -- 49
2017-08-02 20:00:00 29.8 5 Sur 23 Noroeste 0 -- -- 46
2017-08-02 19:00:00 32.4 11 Noroeste 26 Oeste 0 -- -- 38
2017-08-02 18:00:00 29.3 19 Oeste 33 Sudoeste 0 -- -- 58
2017-08-02 17:00:00 28.1 27 Oeste 36 Oeste 0 -- -- 64
2017-08-02 16:00:00 27 27 Oeste 34 Oeste 0 -- -- 71
2017-08-02 15:00:00 26.2 17 Sudoeste 22 Sudoeste 0 -- -- 75
2017-08-02 14:00:00 26 16 Sudoeste 19 Sudoeste 0 -- -- 74
2017-08-02 13:00:00 26.1 12 Sudoeste 14 Sudoeste 0 -- -- 78
2017-08-02 12:00:00 25.3 9 Sur 12 Sur 0 -- -- 81
2017-08-02 11:00:00 25.1 4 Sur 7 Sur 0 -- -- 85
2017-08-02 10:00:00 21.9 3 Nordeste 10 Norte 0 -- -- 88
2017-08-02 09:00:00 18.8 6 Norte 13 Norte 0 -- -- 92
2017-08-02 08:00:00 16.8 7 Norte 12 Norte 0 -- -- 96
2017-08-02 07:00:00 16.8 8 Norte 13 Norte 0 -- -- 95
2017-08-02 06:00:00 17.3 6 Norte 11 Norte 0 -- -- 95
2017-08-02 05:00:00 17.6 8 Norte 10 Norte 0 -- -- 93
2017-08-02 04:00:00 18 7 Norte 8 Norte 0 -- -- 93
2017-08-02 03:00:00 18.5 6 Norte 8 Norte 0 -- -- 91
2017-08-02 02:00:00 18.8 6 Nordeste 7 Nordeste 0 -- -- 90
2017-08-02 01:00:00 19.9 4 Norte 8 Sudeste 0 -- -- 88
2017-08-02 00:00:00 21.2 6 Sudeste 10 Sudeste 0 -- -- 86
2017-08-01 23:00:00 22 4 Sudeste 7 Sudoeste 0 -- -- 86
2017-08-01 22:00:00 22.7 4 Sudoeste 18 Oeste 0 -- -- 82
2017-08-01 21:00:00 24 16 Oeste 28 Oeste 0 -- -- 74
2017-08-01 20:00:00 24.9 24 Oeste 29 Oeste 0 -- -- 73
2017-08-01 19:00:00 26.2 21 Sudoeste 27 Oeste 0 -- -- 68
2017-08-01 18:00:00 25.2 24 Oeste 35 Oeste 0 -- -- 71
2017-08-01 17:00:00 24.8 20 Sudoeste 25 Sudoeste 0 -- -- 72
2017-08-01 16:00:00 24.8 22 Oeste 26 Oeste 0 -- -- 72
2017-08-01 15:00:00 25 18 Sudoeste 22 Sudoeste 0 -- -- 74
2017-08-01 14:00:00 25.1 11 Sudoeste 17 Oeste 0 -- -- 77
2017-08-01 13:00:00 24.4 12 Sudoeste 14 Sudoeste 0 -- -- 82
2017-08-01 12:00:00 23.6 10 Sur 18 Sur 0 -- -- 86
2017-08-01 11:00:00 23.4 13 Sur 19 Sudoeste 0 -- -- 89
2017-08-01 10:00:00 22.5 12 Sudoeste 21 Sudoeste 0 -- -- 92
2017-08-01 09:00:00 22.1 12 Sudoeste 17 Sudoeste 0 -- -- 93
2017-08-01 08:00:00 21.6 14 Sudoeste 22 Sudoeste 0 -- -- 95
2017-08-01 07:00:00 21.7 19 Sudoeste 22 Sudoeste 0 -- -- 94
2017-08-01 06:00:00 21.8 18 Sudoeste 24 Sudoeste 0 -- -- 94
2017-08-01 05:00:00 21.8 17 Sudoeste 20 Sudoeste 0 -- -- 93
2017-08-01 04:00:00 21.9 15 Sudoeste 18 Sudoeste 0 -- -- 92
2017-08-01 03:00:00 21.9 13 Sudoeste 18 Sudoeste 0 -- -- 90
2017-08-01 02:00:00 21.5 13 Sur 15 Sur 0 -- -- 90
2017-08-01 01:00:00 20.8 3 Oeste 7 Oeste 0 -- -- 84
2017-08-01 00:00:00 21.1 0 Calma 11 Oeste 0 -- -- 82
2017-07-31 23:00:00 21.7 6 Sudoeste 17 Oeste 0 -- -- 84
2017-07-31 22:00:00 22.7 10 Oeste 22 Oeste 0 -- -- 87
2017-07-31 21:00:00 24.1 19 Oeste 27 Oeste 0 -- -- 77
2017-07-31 20:00:00 27 18 Oeste 28 Oeste 0 -- -- 67
2017-07-31 19:00:00 27.4 22 Oeste 27 Oeste 0 -- -- 66
2017-07-31 18:00:00 26.7 20 Sudoeste 24 Sudoeste 0 -- -- 72
2017-07-31 17:00:00 26.9 17 Sudoeste 24 Sudoeste 0 -- -- 74
2017-07-31 16:00:00 26.7 18 Sudoeste 22 Sudoeste 0 -- -- 77
2017-07-31 15:00:00 26 15 Sudoeste 21 Sudoeste 0 -- -- 79
2017-07-31 14:00:00 25.7 18 Sudoeste 25 Sudoeste 0 -- -- 80
2017-07-31 13:00:00 25.3 16 Sudoeste 22 Sudoeste 0 -- -- 80
2017-07-31 12:00:00 24.3 18 Sudoeste 22 Sudoeste 0 -- -- 84
2017-07-31 11:00:00 23.5 19 Sudoeste 27 Sudoeste 0 -- -- 89
2017-07-31 10:00:00 22.5 21 Sudoeste 30 Sudoeste 0 -- -- 93
2017-07-31 09:00:00 22.1 17 Sudoeste 23 Sudoeste 0 -- -- 95
2017-07-31 08:00:00 21.8 17 Sudoeste 23 Sudoeste 0 -- -- 96
2017-07-31 07:00:00 21.7 18 Sudoeste 22 Sudoeste 0 -- -- 97
2017-07-31 06:00:00 22.1 13 Sudoeste 23 Sudoeste 0 -- -- 98
2017-07-31 05:00:00 22.2 19 Sudoeste 28 Sudoeste 0 -- -- 99
2017-07-31 04:00:00 22.5 22 Sudoeste 26 Sudoeste 0 -- -- 98
2017-07-31 03:00:00 22.7 13 Sur 17 Sur 0 -- -- 97
2017-07-31 02:00:00 22.7 10 Sur 14 Sur 0 -- -- 96
2017-07-31 01:00:00 22.8 11 Sur 13 Sur 0 -- -- 95
2017-07-31 00:00:00 22.9 7 Sur 10 Sur 0 -- -- 94
2017-07-30 23:00:00 22.9 7 Sur 13 Sudoeste 0 -- -- 91
2017-07-30 22:00:00 23.6 13 Sudoeste 21 Oeste 0 -- -- 91
2017-07-30 21:00:00 25.1 17 Oeste 23 Oeste 0 -- -- 84
2017-07-30 20:00:00 25.7 11 Sudoeste 17 Sudoeste 0 -- -- 84
2017-07-30 19:00:00 26.7 13 Sur 18 Sudoeste 0 -- -- 81
2017-07-30 18:00:00 26.6 15 Sudoeste 26 Sudoeste 0 -- -- 82
2017-07-30 17:00:00 26.5 15 Sudoeste 18 Sudoeste 0 -- -- 81
2017-07-30 16:00:00 26.2 15 Sudoeste 17 Sudoeste 0 -- -- 81
2017-07-30 15:00:00 26.2 12 Sudoeste 16 Sudoeste 0 -- -- 80
2017-07-30 14:00:00 25.7 12 Sudoeste 17 Sudoeste 0 -- -- 82
2017-07-30 13:00:00 24.3 14 Sudoeste 22 Sudoeste 0 -- -- 87
2017-07-30 12:00:00 23 18 Sudoeste 24 Sudoeste 0 -- -- 90
2017-07-30 11:00:00 22.1 18 Sudoeste 24 Sudoeste 0 -- -- 95
2017-07-30 10:00:00 21.8 18 Sudoeste 29 Sudoeste 0 -- -- 97
2017-07-30 09:00:00 21.8 21 Sudoeste 27 Sudoeste 0 -- -- 97
2017-07-30 08:00:00 22.5 14 Sudoeste 19 Sudoeste 0 -- -- 98
2017-07-30 07:00:00 22.2 7 Sudoeste 11 Sudoeste 0 -- -- 97
2017-07-30 06:00:00 22.4 8 Sur 13 Sur 0 -- -- 96
2017-07-30 05:00:00 22 9 Oeste 15 Oeste 0 -- -- 93
2017-07-30 04:00:00 21.2 5 Oeste 10 Norte 0 -- -- 88
2017-07-30 03:00:00 22.1 6 Norte 9 Norte 0 -- -- 86
2017-07-30 02:00:00 22.2 5 Norte 10 Nordeste 0 -- -- 87
2017-07-30 01:00:00 22.8 4 Norte 9 Este 0 -- -- 87
2017-07-30 00:00:00 23.4 5 Este 8 Este 0 -- -- 91
2017-07-29 23:00:00 23.8 4 Sur 12 Sur 0 -- -- 92
2017-07-29 22:00:00 24.2 8 Sur 15 Oeste 0 -- -- 92
2017-07-29 21:00:00 25.7 7 Sudoeste 12 Sudoeste 0 -- -- 86
2017-07-29 20:00:00 27 9 Sur 19 Sudoeste 0 -- -- 81
2017-07-29 19:00:00 26.5 14 Sudoeste 18 Sudoeste 0 -- -- 81
2017-07-29 18:00:00 26.1 16 Sudoeste 29 Sudoeste 0 -- -- 81
2017-07-29 17:00:00 26.1 14 Sudoeste 18 Sudoeste 0 -- -- 81
2017-07-29 16:00:00 26.5 15 Sudoeste 20 Sudoeste 0 -- -- 79
2017-07-29 15:00:00 26 13 Sudoeste 18 Sudoeste 0 -- -- 79
2017-07-29 14:00:00 26 15 Sudoeste 19 Oeste 0 -- -- 79
2017-07-29 13:00:00 24.6 14 Sudoeste 22 Sudoeste 0 -- -- 83
2017-07-29 12:00:00 23.8 13 Sudoeste 18 Sudoeste 0 -- -- 85
2017-07-29 11:00:00 22.3 14 Sudoeste 19 Sudoeste 0 -- -- 91
2017-07-29 10:00:00 21.2 11 Sur 17 Sudoeste 0 -- -- 96
2017-07-29 09:00:00 20.8 11 Sudoeste 18 Sudoeste 0 -- -- 97
2017-07-29 08:00:00 20.8 13 Sudoeste 21 Sudoeste 0 -- -- 97
2017-07-29 07:00:00 21.3 14 Sudoeste 20 Sudoeste 0 -- -- 97
2017-07-29 06:00:00 22.3 13 Sudoeste 17 Sudoeste 0 -- -- 97
2017-07-29 05:00:00 22.4 9 Sudoeste 14 Sudoeste 0 -- -- 96
2017-07-29 04:00:00 22.6 10 Sudoeste 12 Sudoeste 0 -- -- 95
2017-07-29 03:00:00 22.6 9 Sudoeste 12 Sudoeste 0 -- -- 93
2017-07-29 02:00:00 23.1 8 Sudoeste 12 Sudoeste 0 -- -- 91
2017-07-29 01:00:00 23.5 7 Oeste 9 Oeste 0 -- -- 80
2017-07-29 00:00:00 24.2 2 Sur 6 Noroeste 0 -- -- 68
2017-07-28 23:00:00 25.1 5 Noroeste 9 Noroeste 0 -- -- 57
2017-07-28 22:00:00 26.6 6 Noroeste 11 Noroeste 0 -- -- 57
2017-07-28 21:00:00 28.7 9 Oeste 20 Oeste 0 -- -- 57
2017-07-28 20:00:00 28.3 16 Oeste 23 Oeste 0 -- -- 68
2017-07-28 19:00:00 28.8 20 Oeste 26 Oeste 0 -- -- 71
2017-07-28 18:00:00 27.8 22 Oeste 27 Oeste 0 -- -- 76
2017-07-28 17:00:00 26.6 14 Sur 18 Sudoeste 0 -- -- 84
2017-07-28 16:00:00 26.5 15 Sudoeste 19 Sudoeste 0 -- -- 83
2017-07-28 15:00:00 26.3 15 Sudoeste 17 Sudoeste 0 -- -- 84
2017-07-28 14:00:00 26.7 14 Sudoeste 19 Sudoeste 0 -- -- 83
2017-07-28 13:00:00 26.2 13 Sudoeste 14 Sudoeste 0 -- -- 84
2017-07-28 12:00:00 25.9 8 Sudoeste 15 Sudoeste 0 -- -- 85
2017-07-28 11:00:00 23.1 14 Sudoeste 22 Sudoeste 0 -- -- 95
2017-07-28 10:00:00 23.3 15 Sur 23 Sur 0 -- -- 93
2017-07-28 09:00:00 21.5 2 Nordeste 6 Norte 0 -- -- 83
2017-07-28 08:00:00 20.1 4 Norte 6 Norte 0 -- -- 86
2017-07-28 07:00:00 19.8 4 Nordeste 6 Nordeste 0 -- -- 85
2017-07-28 06:00:00 20 3 Norte 6 Oeste 0 -- -- 81
2017-07-28 05:00:00 22.3 5 Oeste 6 Oeste 0 -- -- 88
2017-07-28 04:00:00 21.2 0 Calma 9 Norte 0 -- -- 75
2017-07-28 03:00:00 22.4 5 Norte 9 Noroeste 0 -- -- 75
2017-07-28 02:00:00 22.7 6 Norte 9 Norte 0 -- -- 71
2017-07-28 01:00:00 23.8 3 Nordeste 13 Sur 0 -- -- 86
2017-07-28 00:00:00 24.8 11 Sur 15 Sur 0 -- -- 83
2017-07-27 23:00:00 26.5 2 Sur 8 Norte 0 -- -- 65
2017-07-27 22:00:00 27.8 6 Norte 15 Noroeste 0 -- -- 54
2017-07-27 21:00:00 30.1 9 Norte 15 Norte 0 -- -- 52
2017-07-27 20:00:00 30.1 4 Sudoeste 12 Sudoeste 0 -- -- 67
2017-07-27 19:00:00 30.8 11 Oeste 21 Oeste 0 -- -- 62
2017-07-27 18:00:00 30.1 13 Oeste 17 Sur 0 -- -- 63
2017-07-27 17:00:00 27.9 14 Sur 24 Sur 0 -- -- 75
2017-07-27 16:00:00 27.1 21 Sur 32 Sur 0 -- -- 78
2017-07-27 15:00:00 26.9 21 Sur 25 Sur 0 -- -- 79
2017-07-27 14:00:00 26.6 18 Sur 24 Sur 0 -- -- 80
2017-07-27 13:00:00 26.5 13 Sur 23 Sur 0 -- -- 80
2017-07-27 12:00:00 25.6 17 Sur 22 Sur 0 -- -- 83
2017-07-27 11:00:00 25 14 Sur 17 Sur 0 -- -- 84
2017-07-27 10:00:00 24.2 5 Sudoeste 9 Oeste 0 -- -- 87
2017-07-27 09:00:00 22.5 2 Sudoeste 3 Oeste 0 -- -- 92
2017-07-27 08:00:00 21.5 2 Noroeste 9 Sudoeste 0 -- -- 93
2017-07-27 07:00:00 21.4 0 Calma 6 Oeste 0 -- -- 91
2017-07-27 06:00:00 21.8 2 Este 13 Oeste 0 -- -- 88
2017-07-27 05:00:00 22.1 5 Norte 11 Norte 0 -- -- 86
2017-07-27 04:00:00 22.4 6 Norte 12 Norte 0 -- -- 87
2017-07-27 03:00:00 22.3 6 Norte 10 Norte 0 -- -- 89
2017-07-27 02:00:00 22.5 5 Norte 8 Norte 0 -- -- 90
2017-07-27 01:00:00 23 2 Sur 9 Sudeste 0 -- -- 91
2017-07-27 00:00:00 23.3 3 Sur 10 Sudeste 0 -- -- 90
2017-07-26 23:00:00 23.9 7 Sudeste 11 Sudeste 0 -- -- 86
2017-07-26 22:00:00 25 5 Sudeste 6 Sudeste 0 -- -- 84
2017-07-26 21:00:00 26.6 3 Sur 15 Oeste 0 -- -- 79
2017-07-26 20:00:00 27.4 10 Oeste 24 Oeste 0 -- -- 75
2017-07-26 19:00:00 27.7 24 Oeste 29 Oeste 0 -- -- 73
2017-07-26 18:00:00 27.5 17 Sudoeste 24 Oeste 0 -- -- 75
2017-07-26 17:00:00 26.8 17 Sur 21 Sur 0 -- -- 77
2017-07-26 16:00:00 27.3 16 Sur 25 Sur 0 -- -- 77
2017-07-26 15:00:00 26.4 19 Sur 26 Sur 0 -- -- 81
2017-07-26 14:00:00 26.2 13 Sudoeste 17 Sur 0 -- -- 82
2017-07-26 13:00:00 25.7 15 Sudoeste 21 Oeste 0 -- -- 83
2017-07-26 12:00:00 24.5 16 Oeste 19 Oeste 0 -- -- 87
2017-07-26 11:00:00 23.5 9 Sudoeste 12 Sudoeste 0 -- -- 89
2017-07-26 10:00:00 21.9 7 Sudoeste 14 Sudoeste 0 -- -- 97
2017-07-26 09:00:00 20.5 6 Sur 19 Sur 0 -- -- 99
2017-07-26 08:00:00 20.5 17 Sur 26 Sur 0 -- -- 100
2017-07-26 07:00:00 20.2 19 Sur 25 Sur 0 -- -- 98
2017-07-26 06:00:00 21.3 17 Sur 27 Sur 0 -- -- 98
2017-07-26 05:00:00 21.5 10 Sur 19 Sudeste 0 -- -- 98
2017-07-26 04:00:00 21.5 8 Sur 9 Sudeste 0 -- -- 98
2017-07-26 03:00:00 21.2 0 Calma 11 Sur 0 -- -- 97
2017-07-26 02:00:00 21.8 10 Sur 18 Sur 0 -- -- 97
2017-07-26 01:00:00 21.9 10 Sur 13 Sur 0 -- -- 96
2017-07-26 00:00:00 22.1 7 Sur 9 Sur 0 -- -- 95
2017-07-25 23:00:00 22.3 7 Sudoeste 13 Sudoeste 0 -- -- 94
2017-07-25 22:00:00 22.7 10 Sudoeste 14 Sur 0 -- -- 92
2017-07-25 21:00:00 24.5 9 Sur 12 Sur 0 -- -- 85
2017-07-25 20:00:00 25.7 9 Sudoeste 17 Sudoeste 0 -- -- 81
2017-07-25 19:00:00 26.5 13 Sudoeste 17 Sudoeste 0 -- -- 80
2017-07-25 18:00:00 25.8 12 Sudoeste 18 Sur 0 -- -- 84
2017-07-25 17:00:00 25.7 13 Sur 17 Sudoeste 0 -- -- 84
2017-07-25 16:00:00 25.6 14 Sudoeste 16 Sur 0 -- -- 84
2017-07-25 15:00:00 25 12 Sudoeste 20 Sur 0 -- -- 86
2017-07-25 14:00:00 24.1 16 Sudoeste 27 Sudoeste 0 -- -- 90
2017-07-25 13:00:00 23.1 21 Sudoeste 27 Sudoeste 0 -- -- 94
2017-07-25 12:00:00 22.8 21 Sudoeste 28 Sudoeste 0 -- -- 94
2017-07-25 11:00:00 23.8 16 Sudoeste 19 Sudoeste 0 -- -- 92
2017-07-25 10:00:00 23.1 14 Sur 17 Sur 0 -- -- 95
2017-07-25 09:00:00 22.5 12 Sudeste 15 Sudeste 0 -- -- 98
2017-07-25 08:00:00 21.7 7 Sur 13 Sur 0 -- -- 98
2017-07-25 07:00:00 21.7 9 Sur 17 Sur 0 -- -- 98
2017-07-25 06:00:00 21.9 12 Sur 15 Sur 0 -- -- 98
2017-07-25 05:00:00 21.7 5 Sudoeste 20 Sudoeste 0 -- -- 97
2017-07-25 04:00:00 21.9 18 Sudoeste 23 Sudoeste 0 -- -- 97
2017-07-25 03:00:00 22 19 Sudoeste 23 Sudoeste 0 -- -- 96
2017-07-25 02:00:00 22.3 13 Sur 15 Sur 0 -- -- 95
2017-07-25 01:00:00 22.7 6 Sur 9 Sur 0 -- -- 92
2017-07-25 00:00:00 23 6 Sudoeste 14 Sur 0 -- -- 89
2017-07-24 23:00:00 23.9 8 Sur 13 Sudoeste 0 -- -- 85
2017-07-24 22:00:00 26.3 0 Calma 13 Noroeste 0 -- -- 67
2017-07-24 21:00:00 28.9 9 Noroeste 15 Noroeste 0 -- -- 54
2017-07-24 20:00:00 29.1 12 Oeste 18 Sur 0 -- -- 64
2017-07-24 19:00:00 32.4 10 Oeste 22 Oeste 0 -- -- 50
2017-07-24 18:00:00 29.9 15 Sudoeste 26 Oeste 0 -- -- 58
2017-07-24 17:00:00 27.9 21 Oeste 29 Sudoeste 0 -- -- 74
2017-07-24 16:00:00 26.3 23 Sudoeste 26 Sudoeste 0 -- -- 81
2017-07-24 15:00:00 26.1 16 Sudoeste 20 Sudoeste 0 -- -- 81
2017-07-24 14:00:00 25.1 16 Sudoeste 23 Sudoeste 0 -- -- 85
2017-07-24 13:00:00 25.4 14 Sudoeste 18 Sudoeste 0 -- -- 86
2017-07-24 12:00:00 24.9 14 Sudoeste 18 Sudoeste 0 -- -- 86
2017-07-24 11:00:00 23.9 13 Sudoeste 19 Sudoeste 0 -- -- 89
2017-07-24 10:00:00 22.8 16 Sudoeste 20 Sudoeste 0 -- -- 92
2017-07-24 09:00:00 19.9 4 Norte 8 Norte 0 -- -- 92
2017-07-24 08:00:00 17.8 4 Nordeste 11 Sudoeste 0 -- -- 91
2017-07-24 07:00:00 21.3 9 Sudoeste 16 Sudoeste 0 -- -- 95
2017-07-24 06:00:00 21.4 10 Sudoeste 15 Sudoeste 0 -- -- 94
2017-07-24 05:00:00 21.1 3 Sur 7 Sudoeste 0 -- -- 91
2017-07-24 04:00:00 21.1 3 Oeste 8 Sur 0 -- -- 91
2017-07-24 03:00:00 19.9 4 Sur 6 Este 0 -- -- 84
2017-07-24 02:00:00 20.6 0 Calma 8 Sudoeste 0 -- -- 77
2017-07-24 01:00:00 23.1 5 Sudoeste 8 Sudoeste 0 -- -- 81
2017-07-24 00:00:00 23.7 2 Nordeste 4 Sudeste 0 -- -- 67
2017-07-23 23:00:00 24.7 2 Este 9 Noroeste 0 -- -- 63
2017-07-23 22:00:00 25.9 5 Noroeste 17 Noroeste 0 -- -- 58
2017-07-23 21:00:00 29.2 4 Norte 18 Norte 0 -- -- 49
2017-07-23 20:00:00 30 15 Noroeste 24 Noroeste 0 -- -- 48
2017-07-23 19:00:00 32.1 11 Noroeste 27 Noroeste 0 -- -- 44
2017-07-23 18:00:00 28.6 19 Sudoeste 28 Oeste 0 -- -- 65
2017-07-23 17:00:00 27.4 24 Oeste 32 Oeste 0 -- -- 71
2017-07-23 16:00:00 26.4 26 Oeste 33 Oeste 0 -- -- 76
2017-07-23 15:00:00 25.1 17 Sudoeste 21 Sudoeste 0 -- -- 84
2017-07-23 14:00:00 25.5 15 Sudoeste 18 Sudoeste 0 -- -- 80
2017-07-23 13:00:00 25.2 14 Sudoeste 17 Sudoeste 0 -- -- 80
2017-07-23 12:00:00 24.7 15 Sudoeste 19 Sudoeste 0 -- -- 81
2017-07-23 11:00:00 24.4 8 Oeste 11 Sudoeste 0 -- -- 82
2017-07-23 10:00:00 22.3 4 Sur 8 Norte 0 -- -- 91
2017-07-23 09:00:00 19.1 5 Norte 8 Nordeste 0 -- -- 93
2017-07-23 08:00:00 18.3 4 Norte 14 Sudoeste 0 -- -- 94
2017-07-23 07:00:00 19.9 8 Sudoeste 16 Sudoeste 0 -- -- 96
2017-07-23 06:00:00 20.4 10 Sudoeste 18 Sudoeste 0 -- -- 96
2017-07-23 05:00:00 18.4 0 Calma 5 Norte 0 -- -- 94
2017-07-23 04:00:00 19 0 Calma 5 Nordeste 0 -- -- 92
2017-07-23 03:00:00 18.6 3 Este 5 Norte 0 -- -- 90
2017-07-23 02:00:00 21 3 Sur 12 Sur 0 -- -- 89
2017-07-23 01:00:00 21.5 8 Sur 10 Sur 0 -- -- 89
2017-07-23 00:00:00 21.7 3 Oeste 10 Oeste 0 -- -- 81
2017-07-22 23:00:00 22.1 6 Oeste 15 Oeste 0 -- -- 80
2017-07-22 22:00:00 23.2 7 Noroeste 14 Norte 0 -- -- 73
2017-07-22 21:00:00 26 9 Oeste 18 Oeste 0 -- -- 64
2017-07-22 20:00:00 27.8 12 Noroeste 28 Noroeste 0 -- -- 53
2017-07-22 19:00:00 29.4 17 Noroeste 32 Noroeste 0 -- -- 44
2017-07-22 18:00:00 28.7 15 Noroeste 27 Oeste 0 -- -- 47
2017-07-22 17:00:00 25.9 24 Oeste 35 Oeste 0 -- -- 69
2017-07-22 16:00:00 25.4 26 Oeste 33 Sudoeste 0 -- -- 73
2017-07-22 15:00:00 24.9 21 Sudoeste 25 Sudoeste 0 -- -- 72
2017-07-22 14:00:00 24.4 19 Sudoeste 26 Sudoeste 0 -- -- 79
2017-07-22 13:00:00 23.6 21 Sudoeste 27 Sudoeste 0 -- -- 81
2017-07-22 12:00:00 22.4 22 Sudoeste 26 Sudoeste 0 -- -- 86
2017-07-22 11:00:00 21.6 22 Sudoeste 26 Sudoeste 0 -- -- 88
2017-07-22 10:00:00 21.1 19 Sudoeste 29 Sudoeste 0 -- -- 89
2017-07-22 09:00:00 20.9 20 Sudoeste 25 Sudoeste 0 -- -- 89
2017-07-22 08:00:00 20.6 19 Sudoeste 23 Sudoeste 0 -- -- 89
2017-07-22 07:00:00 20.4 16 Sudoeste 18 Sudoeste 0 -- -- 89
2017-07-22 06:00:00 20.2 15 Sudoeste 22 Sudoeste 0 -- -- 89
2017-07-22 05:00:00 20.1 14 Sudoeste 20 Sudoeste 0 -- -- 90
2017-07-22 04:00:00 19.8 5 Sudoeste 16 Sudoeste 0 -- -- 83
2017-07-22 03:00:00 20.4 12 Sudoeste 15 Sudoeste 0 -- -- 85
2017-07-22 02:00:00 20.3 12 Sudoeste 19 Sudoeste 0 -- -- 83
2017-07-22 01:00:00 20.3 15 Sudoeste 19 Sudoeste 0 -- -- 83
2017-07-22 00:00:00 20 14 Oeste 17 Oeste 0 -- -- 84
2017-07-21 23:00:00 19.9 8 Oeste 17 Oeste 0 -- -- 83
2017-07-21 22:00:00 20.7 11 Oeste 18 Noroeste 0 -- -- 77
2017-07-21 21:00:00 22.4 14 Noroeste 25 Noroeste 0 -- -- 69
2017-07-21 20:00:00 24.5 14 Noroeste 26 Oeste 0 -- -- 63
2017-07-21 19:00:00 26.8 16 Oeste 26 Noroeste 0 -- -- 56
2017-07-21 18:00:00 26 14 Oeste 27 Oeste 0 -- -- 57
2017-07-21 17:00:00 26.4 19 Oeste 28 Oeste 0 -- -- 58
2017-07-21 16:00:00 26.2 19 Oeste 26 Oeste 0 -- -- 60
2017-07-21 15:00:00 25.6 15 Oeste 26 Oeste 0 -- -- 63
2017-07-21 14:00:00 25.3 15 Oeste 23 Oeste 0 -- -- 66
2017-07-21 13:00:00 24.2 15 Oeste 22 Oeste 0 -- -- 68
2017-07-21 12:00:00 22.9 15 Oeste 39 Sudoeste 0 -- -- 75
2017-07-21 11:00:00 21.8 32 Sudoeste 40 Sudoeste 0 -- -- 80
2017-07-21 10:00:00 21.3 31 Sudoeste 47 Sudoeste 0 -- -- 83
2017-07-21 09:00:00 21 30 Sudoeste 38 Sudoeste 0 -- -- 85
2017-07-21 08:00:00 20.7 30 Sudoeste 36 Sudoeste 0 -- -- 87
2017-07-21 07:00:00 20.8 28 Sudoeste 39 Sudoeste 0 -- -- 88
2017-07-21 06:00:00 20.8 30 Sudoeste 51 Sudoeste 0 -- -- 90
2017-07-21 05:00:00 21 25 Sudoeste 35 Sudoeste 0 -- -- 89
2017-07-21 04:00:00 21.1 27 Sudoeste 36 Sudoeste 0 -- -- 89
2017-07-21 03:00:00 21 31 Sudoeste 38 Sudoeste 0 -- -- 89
2017-07-21 02:00:00 21 28 Sudoeste 37 Sudoeste 0 -- -- 88
2017-07-21 01:00:00 21.3 26 Sudoeste 33 Sudoeste 0 -- -- 85
2017-07-21 00:00:00 21.2 22 Sudoeste 27 Sudoeste 0 -- -- 83
2017-07-20 23:00:00 21 21 Sudoeste 25 Sudoeste 0 -- -- 82
2017-07-20 22:00:00 21.3 15 Oeste 25 Oeste 0 -- -- 81
2017-07-20 21:00:00 22.7 19 Oeste 33 Oeste 0 -- -- 74
2017-07-20 20:00:00 24.2 22 Oeste 30 Oeste 0 -- -- 70
2017-07-20 19:00:00 26.2 24 Oeste 35 Oeste 0 -- -- 64
2017-07-20 18:00:00 25.5 29 Oeste 34 Oeste 0 -- -- 67
2017-07-20 17:00:00 25.9 27 Oeste 35 Oeste 0 -- -- 64
2017-07-20 16:00:00 25.3 27 Oeste 32 Oeste 0 -- -- 69
2017-07-20 15:00:00 25.3 23 Oeste 29 Oeste 0 -- -- 70
2017-07-20 14:00:00 25.4 22 Oeste 32 Oeste 0 -- -- 72
2017-07-20 13:00:00 25.4 20 Oeste 25 Oeste 0 -- -- 73
2017-07-20 12:00:00 24.8 18 Oeste 27 Sudoeste 0 -- -- 79
2017-07-20 11:00:00 22.9 22 Sudoeste 33 Sudoeste 0 -- -- 89
2017-07-20 10:00:00 22 29 Sudoeste 36 Sudoeste 0 -- -- 91
2017-07-20 09:00:00 21.7 28 Sudoeste 33 Sudoeste 0 -- -- 96
2017-07-20 08:00:00 21.6 28 Sudoeste 33 Sudoeste 0 -- -- 97
2017-07-20 07:00:00 21.7 24 Sudoeste 28 Sudoeste 0 -- -- 97
2017-07-20 06:00:00 21.7 14 Sudoeste 21 Sudoeste 0 -- -- 95
2017-07-20 05:00:00 21.6 12 Sudoeste 15 Sudoeste 0 -- -- 95
2017-07-20 04:00:00 21.4 12 Sudoeste 21 Sudoeste 0 -- -- 96
2017-07-20 03:00:00 21.5 19 Sudoeste 24 Sur 0 -- -- 97
2017-07-20 02:00:00 21.9 19 Sur 22 Sur 0 -- -- 94
2017-07-20 01:00:00 22.2 14 Sudoeste 16 Sudoeste 0 -- -- 94
2017-07-20 00:00:00 22.4 12 Sudoeste 15 Sudoeste 0 -- -- 92
2017-07-19 23:00:00 22.5 10 Sudoeste 15 Oeste 0 -- -- 90
2017-07-19 22:00:00 22.6 11 Oeste 23 Oeste 0 -- -- 84
2017-07-19 21:00:00 24.5 11 Oeste 29 Oeste 0 -- -- 77
2017-07-19 20:00:00 25.5 25 Oeste 32 Oeste 0 -- -- 78
2017-07-19 19:00:00 27 27 Oeste 32 Oeste 0 -- -- 75
2017-07-19 18:00:00 26.1 24 Oeste 46 Oeste 0 -- -- 76
2017-07-19 17:00:00 26.4 30 Oeste 38 Oeste 0 -- -- 74
2017-07-19 16:00:00 26.1 31 Oeste 37 Oeste 0 -- -- 76
2017-07-19 15:00:00 26.1 25 Oeste 30 Oeste 0 -- -- 76
2017-07-19 14:00:00 25.6 22 Sudoeste 28 Sudoeste 0 -- -- 78
2017-07-19 13:00:00 24.9 20 Sudoeste 24 Sudoeste 0 -- -- 79
2017-07-19 12:00:00 24.3 19 Sudoeste 25 Sudoeste 0 -- -- 79
2017-07-19 11:00:00 23.1 21 Sudoeste 32 Sudoeste 0 -- -- 83
2017-07-19 10:00:00 21.9 20 Sudoeste 27 Oeste 0 -- -- 90
2017-07-19 09:00:00 21.8 21 Sudoeste 26 Sudoeste 0 -- -- 94
2017-07-19 08:00:00 21.2 22 Oeste 33 Sudoeste 0 -- -- 96
2017-07-19 07:00:00 21.7 18 Sudoeste 22 Sudoeste 0 -- -- 98
2017-07-19 06:00:00 21.7 21 Sudoeste 24 Sudoeste 0 -- -- 96
2017-07-19 05:00:00 22.2 10 Sur 18 Sudoeste 0 -- -- 97
2017-07-19 04:00:00 22.3 17 Sudoeste 22 Sudoeste 0 -- -- 97
2017-07-19 03:00:00 22 16 Sudoeste 20 Sudoeste 0 -- -- 95
2017-07-19 02:00:00 23.1 12 Oeste 19 Sudoeste 0 -- -- 92
2017-07-19 01:00:00 23.6 9 Oeste 16 Oeste 0 -- -- 91
2017-07-19 00:00:00 24 11 Sudoeste 19 Sudoeste 0 -- -- 90